createdAt,value
2022-12-03T00:00:12.548Z,101212.81
2022-12-03T00:01:13.321Z,101201.16
2022-12-03T00:01:53.248Z,101205.06
2022-12-03T00:02:34.457Z,101211.00
2022-12-03T00:03:15.391Z,101214.66
2022-12-03T00:04:03.353Z,101185.97
2022-12-03T00:04:57.218Z,101209.78
2022-12-03T00:05:52.283Z,101213.31
2022-12-03T00:06:46.246Z,101207.00
2022-12-03T00:07:40.410Z,101219.09
2022-12-03T00:08:34.251Z,101212.13
2022-12-03T00:09:21.339Z,101204.28
2022-12-03T00:09:55.275Z,101215.53
2022-12-03T00:10:42.219Z,101207.00
2022-12-03T00:11:16.394Z,101203.97
2022-12-03T00:12:03.241Z,101216.56
2022-12-03T00:12:37.270Z,101204.88
2022-12-03T00:13:24.218Z,101207.28
2022-12-03T00:13:58.287Z,101209.19
2022-12-03T00:14:45.310Z,101206.56
2022-12-03T00:15:19.271Z,101208.47
2022-12-03T00:16:06.293Z,101207.28
2022-12-03T00:16:40.310Z,101207.53
2022-12-03T00:17:27.230Z,101207.00
2022-12-03T00:18:01.283Z,101205.16
2022-12-03T00:18:48.236Z,101204.28
2022-12-03T00:19:22.311Z,101205.25
2022-12-03T00:20:11.368Z,101207.72
2022-12-03T00:20:45.404Z,101208.03
2022-12-03T00:21:32.288Z,101201.56
2022-12-03T00:22:06.585Z,101202.53
2022-12-03T00:22:53.238Z,101205.63
2022-12-03T00:23:27.313Z,101197.09
2022-12-03T00:24:15.247Z,101195.97
2022-12-03T00:24:49.303Z,101190.75
2022-12-03T00:25:36.240Z,101199.44
2022-12-03T00:26:10.442Z,101210.00
2022-12-03T00:26:57.267Z,101208.94
2022-12-03T00:27:31.276Z,101202.84
2022-12-03T00:28:18.255Z,101207.72
2022-12-03T00:28:52.294Z,101201.28
2022-12-03T00:29:39.246Z,101195.97
2022-12-03T00:30:15.340Z,101203.69
2022-12-03T00:30:56.288Z,101199.44
2022-12-03T00:31:36.318Z,101201.22
2022-12-03T00:32:16.273Z,101187.25
2022-12-03T00:32:57.297Z,101200.47
2022-12-03T00:33:38.303Z,101192.59
2022-12-03T00:34:18.352Z,101195.09
2022-12-03T00:34:59.554Z,101204.88
2022-12-03T00:35:40.256Z,101199.38
2022-12-03T00:36:21.283Z,101189.00
2022-12-03T00:37:01.411Z,101190.72
2022-12-03T00:37:42.355Z,101201.28
2022-12-03T00:38:22.267Z,101197.66
2022-12-03T00:39:02.180Z,101197.72
2022-12-03T00:39:42.273Z,101197.22
2022-12-03T00:40:22.365Z,101185.59
2022-12-03T00:41:02.273Z,101185.59
2022-12-03T00:41:42.349Z,101195.78
2022-12-03T00:42:23.277Z,101194.25
2022-12-03T00:43:03.291Z,101191.53
2022-12-03T00:43:43.276Z,101190.66
2022-12-03T00:44:23.203Z,101180.09
2022-12-03T00:45:03.283Z,101180.28
2022-12-03T00:45:43.190Z,101184.78
2022-12-03T00:46:23.490Z,101189.13
2022-12-03T00:47:04.442Z,101194.25
2022-12-03T00:47:45.240Z,101188.66
2022-12-03T00:48:25.297Z,101193.06
2022-12-03T00:49:05.228Z,101188.91
2022-12-03T00:49:45.202Z,101195.06
2022-12-03T00:50:25.234Z,101190.84
2022-12-03T00:51:06.168Z,101189.88
2022-12-03T00:51:47.275Z,101184.47
2022-12-03T00:52:27.602Z,101192.41
2022-12-03T00:53:08.248Z,101171.41
2022-12-03T00:53:50.259Z,101186.13
2022-12-03T00:54:32.233Z,101182.06
2022-12-03T00:55:13.177Z,101186.22
2022-12-03T00:55:53.407Z,101183.50
2022-12-03T00:56:34.202Z,101188.72
2022-12-03T00:57:14.268Z,101169.38
2022-12-03T00:57:54.206Z,101187.19
2022-12-03T00:58:34.244Z,101180.41
2022-12-03T00:59:14.182Z,101185.34
2022-12-03T00:59:54.272Z,101189.66
2022-12-03T01:00:34.288Z,101172.97
2022-12-03T01:01:15.362Z,101188.63
2022-12-03T01:01:55.278Z,101187.00
2022-12-03T01:02:36.211Z,101187.06
2022-12-03T01:03:17.227Z,101191.44
2022-12-03T01:03:57.249Z,101186.00
2022-12-03T01:04:37.223Z,101192.31
2022-12-03T01:05:18.302Z,101180.22
2022-12-03T01:05:59.181Z,101192.59
2022-12-03T01:06:39.219Z,101192.41
2022-12-03T01:07:21.155Z,101190.66
2022-12-03T01:08:01.241Z,101196.28
2022-12-03T01:08:41.207Z,101188.31
2022-12-03T01:09:21.303Z,101195.16
2022-12-03T01:10:01.172Z,101201.25
2022-12-03T01:10:42.229Z,101199.00
2022-12-03T01:11:41.207Z,101186.72
2022-12-03T01:12:21.201Z,101199.00
2022-12-03T01:13:01.180Z,101205.16
2022-12-03T01:13:48.186Z,101197.16
2022-12-03T01:14:42.162Z,101200.66
2022-12-03T01:15:36.268Z,101193.44
2022-12-03T01:16:30.209Z,101206.00
2022-12-03T01:17:24.120Z,101193.38
2022-12-03T01:18:18.171Z,101192.50
2022-12-03T01:19:05.245Z,101190.94
2022-12-03T01:19:46.519Z,101189.13
2022-12-03T01:20:35.229Z,101189.19
2022-12-03T01:21:09.220Z,101197.91
2022-12-03T01:21:58.221Z,101199.56
2022-12-03T01:22:32.356Z,101188.91
2022-12-03T01:23:19.126Z,101199.44
2022-12-03T01:23:53.228Z,101195.25
2022-12-03T01:24:35.237Z,101187.44
2022-12-03T01:25:16.296Z,101187.69
2022-12-03T01:25:57.175Z,101190.94
2022-12-03T01:26:38.366Z,101190.94
2022-12-03T01:27:19.220Z,101181.50
2022-12-03T01:27:59.194Z,101186.59
2022-12-03T01:28:39.185Z,101191.53
2022-12-03T01:29:20.249Z,101187.06
2022-12-03T01:30:01.192Z,101196.09
2022-12-03T01:31:01.661Z,101182.81
2022-12-03T01:32:02.167Z,101184.91
2022-12-03T01:32:42.326Z,101195.38
2022-12-03T01:33:22.273Z,101197.22
2022-12-03T01:34:02.221Z,101190.16
2022-12-03T01:34:43.162Z,101178.66
2022-12-03T01:35:23.151Z,101187.19
2022-12-03T01:35:57.230Z,101196.91
2022-12-03T01:36:44.124Z,101186.06
2022-12-03T01:37:18.223Z,101180.75
2022-12-03T01:38:05.129Z,101183.22
2022-12-03T01:38:39.200Z,101194.59
2022-12-03T01:39:27.127Z,101184.19
2022-12-03T01:40:01.188Z,101195.59
2022-12-03T01:40:48.145Z,101195.50
2022-12-03T01:41:24.192Z,101185.16
2022-12-03T01:42:12.122Z,101197.06
2022-12-03T01:42:48.145Z,101195.41
2022-12-03T01:43:35.112Z,101193.66
2022-12-03T01:44:21.214Z,101190.56
2022-12-03T01:45:09.131Z,101192.25
2022-12-03T01:45:43.196Z,101194.25
2022-12-03T01:46:28.247Z,101196.78
2022-12-03T01:47:11.223Z,101191.59
2022-12-03T01:47:52.130Z,101193.84
2022-12-03T01:48:32.183Z,101185.25
2022-12-03T01:49:13.154Z,101195.59
2022-12-03T01:50:30.145Z,101169.38
2022-12-03T01:51:11.127Z,101181.28
2022-12-03T01:51:52.236Z,101172.56
2022-12-03T01:52:30.235Z,101186.50
2022-12-03T01:53:22.129Z,101173.38
2022-12-03T01:53:56.251Z,101179.50
2022-12-03T01:54:51.534Z,101175.50
2022-12-03T01:55:28.144Z,101155.28
2022-12-03T01:56:18.260Z,101163.97
2022-12-03T01:56:52.146Z,101152.06
2022-12-03T01:57:46.148Z,101169.19
2022-12-03T01:58:33.165Z,101176.91
2022-12-03T01:59:13.127Z,101171.75
2022-12-03T01:59:54.192Z,101173.38
2022-12-03T02:00:36.189Z,101167.19
2022-12-03T02:01:23.316Z,101160.13
2022-12-03T02:02:03.219Z,101153.16
2022-12-03T02:02:43.143Z,101174.06
2022-12-03T02:03:31.170Z,101166.97
2022-12-03T02:04:11.255Z,101173.84
2022-12-03T02:04:51.472Z,101166.97
2022-12-03T02:05:35.155Z,101172.00
2022-12-03T02:06:26.085Z,101172.09
2022-12-03T02:07:28.261Z,101168.72
2022-12-03T02:08:09.117Z,101177.31
2022-12-03T02:08:49.128Z,101165.72
2022-12-03T02:09:23.120Z,101166.78
2022-12-03T02:10:12.072Z,101177.50
2022-12-03T02:10:46.244Z,101174.97
2022-12-03T02:11:39.140Z,101168.03
2022-12-03T02:12:13.171Z,101181.56
2022-12-03T02:13:15.054Z,101159.19
2022-12-03T02:14:04.115Z,101165.13
2022-12-03T02:14:37.871Z,101181.19
2022-12-03T02:15:26.053Z,101166.97
2022-12-03T02:15:59.886Z,101155.41
2022-12-03T02:16:50.152Z,101155.16
2022-12-03T02:17:26.511Z,101163.91
2022-12-03T02:18:13.075Z,101170.97
2022-12-03T02:18:46.793Z,101168.19
2022-12-03T02:19:32.305Z,101161.06
2022-12-03T02:20:07.171Z,101133.41
2022-12-03T02:21:15.149Z,101147.72
2022-12-03T02:22:12.268Z,101170.34
2022-12-03T02:23:11.158Z,101158.78
2022-12-03T02:24:05.439Z,101158.78
2022-12-03T02:25:24.085Z,101160.41
2022-12-03T02:25:58.143Z,101167.25
2022-12-03T02:26:32.860Z,101160.22
2022-12-03T02:27:13.136Z,101158.63
2022-12-03T02:27:47.116Z,101156.03
2022-12-03T02:28:20.737Z,101157.88
2022-12-03T02:29:01.094Z,101158.78
2022-12-03T02:29:35.066Z,101153.69
2022-12-03T02:30:10.962Z,101158.22
2022-12-03T02:30:52.104Z,101152.09
2022-12-03T02:31:26.172Z,101164.41
2022-12-03T02:31:59.818Z,101162.00
2022-12-03T02:32:40.088Z,101163.25
2022-12-03T02:33:14.138Z,101164.16
2022-12-03T02:33:47.815Z,101151.75
2022-12-03T02:34:49.083Z,101150.84
2022-12-03T02:35:29.290Z,101160.47
2022-12-03T02:36:10.098Z,101156.88
2022-12-03T02:36:50.146Z,101155.59
2022-12-03T02:37:34.108Z,101167.66
2022-12-03T02:38:34.247Z,101163.81
2022-12-03T02:39:14.062Z,101159.19
2022-12-03T02:39:59.106Z,101157.34
2022-12-03T02:40:40.054Z,101154.00
2022-12-03T02:41:47.088Z,101159.31
2022-12-03T02:42:36.447Z,101153.88
2022-12-03T02:43:23.062Z,101147.75
2022-12-03T02:43:56.779Z,101152.94
2022-12-03T02:44:45.087Z,101147.69
2022-12-03T02:45:32.540Z,101154.69
2022-12-03T02:46:22.129Z,101152.94
2022-12-03T02:47:02.152Z,101151.00
2022-12-03T02:47:53.292Z,101149.28
2022-12-03T02:48:38.073Z,101148.56
2022-12-03T02:49:19.112Z,101161.06
2022-12-03T02:49:59.087Z,101160.06
2022-12-03T02:50:44.270Z,101139.97
2022-12-03T02:51:24.073Z,101152.22
2022-12-03T02:52:11.184Z,101159.13
2022-12-03T02:52:46.187Z,101151.84
2022-12-03T02:53:38.071Z,101137.75
2022-12-03T02:54:12.763Z,101160.53
2022-12-03T02:55:01.072Z,101149.84
2022-12-03T02:55:37.401Z,101154.31
2022-12-03T02:56:34.120Z,101157.06
2022-12-03T02:57:07.800Z,101157.06
2022-12-03T02:57:50.092Z,101156.84
2022-12-03T02:58:24.072Z,101166.56
2022-12-03T02:59:02.256Z,101132.44
2022-12-03T02:59:42.029Z,101154.19
2022-12-03T03:00:17.208Z,101155.78
2022-12-03T03:00:53.016Z,101157.50
2022-12-03T03:01:34.127Z,101153.47
2022-12-03T03:02:08.105Z,101160.28
2022-12-03T03:02:42.369Z,101148.66
2022-12-03T03:03:24.139Z,101160.22
2022-12-03T03:03:59.099Z,101158.44
2022-12-03T03:04:32.717Z,101140.13
2022-12-03T03:05:15.040Z,101160.53
2022-12-03T03:05:49.098Z,101159.66
2022-12-03T03:06:22.863Z,101165.84
2022-12-03T03:07:03.038Z,101159.44
2022-12-03T03:07:37.089Z,101133.31
2022-12-03T03:08:10.894Z,101152.38
2022-12-03T03:08:52.059Z,101149.59
2022-12-03T03:09:27.127Z,101138.16
2022-12-03T03:10:01.147Z,101158.16
2022-12-03T03:10:42.025Z,101152.84
2022-12-03T03:11:16.101Z,101156.59
2022-12-03T03:11:49.801Z,101149.78
2022-12-03T03:12:31.794Z,101160.22
2022-12-03T03:13:11.134Z,101149.59
2022-12-03T03:13:45.927Z,101149.59
2022-12-03T03:14:27.079Z,101150.38
2022-12-03T03:15:01.070Z,101145.19
2022-12-03T03:15:37.271Z,101158.16
2022-12-03T03:16:17.203Z,101143.28
2022-12-03T03:16:56.148Z,101145.91
2022-12-03T03:17:29.751Z,101147.44
2022-12-03T03:18:12.028Z,101148.44
2022-12-03T03:18:46.071Z,101146.66
2022-12-03T03:19:19.663Z,101148.44
2022-12-03T03:20:00.028Z,101143.97
2022-12-03T03:20:34.064Z,101152.84
2022-12-03T03:21:07.923Z,101147.50
2022-12-03T03:21:48.030Z,101151.22
2022-12-03T03:22:22.144Z,101139.66
2022-12-03T03:23:25.350Z,101147.84
2022-12-03T03:24:05.012Z,101146.00
2022-12-03T03:24:39.229Z,101144.19
2022-12-03T03:25:23.083Z,101141.38
2022-12-03T03:26:13.073Z,101144.16
2022-12-03T03:26:53.047Z,101132.81
2022-12-03T03:27:34.068Z,101140.72
2022-12-03T03:28:13.991Z,101149.50
2022-12-03T03:29:00.001Z,101150.38
2022-12-03T03:29:41.032Z,101144.25
2022-12-03T03:30:22.051Z,101138.06
2022-12-03T03:31:03.027Z,101143.25
2022-12-03T03:31:44.165Z,101137.06
2022-12-03T03:32:24.080Z,101143.13
2022-12-03T03:33:05.054Z,101145.69
2022-12-03T03:33:46.986Z,101150.09
2022-12-03T03:34:28.035Z,101148.34
2022-12-03T03:35:07.990Z,101133.72
2022-12-03T03:35:50.429Z,101140.59
2022-12-03T03:36:32.059Z,101146.78
2022-12-03T03:37:12.071Z,101144.16
2022-12-03T03:37:52.016Z,101153.16
2022-12-03T03:38:32.011Z,101140.88
2022-12-03T03:39:12.985Z,101149.78
2022-12-03T03:39:53.076Z,101134.13
2022-12-03T03:40:33.999Z,101133.38
2022-12-03T03:41:15.044Z,101128.91
2022-12-03T03:41:55.025Z,101141.75
2022-12-03T03:42:36.065Z,101143.44
2022-12-03T03:43:16.018Z,101140.66
2022-12-03T03:43:57.043Z,101137.19
2022-12-03T03:44:37.009Z,101144.16
2022-12-03T03:45:18.087Z,101133.53
2022-12-03T03:46:00.012Z,101130.84
2022-12-03T03:46:41.031Z,101125.47
2022-12-03T03:47:20.991Z,101133.03
2022-12-03T03:48:02.010Z,101137.41
2022-12-03T03:48:43.003Z,101143.81
2022-12-03T03:49:23.048Z,101132.22
2022-12-03T03:50:02.990Z,101130.34
2022-12-03T03:50:44.058Z,101131.06
2022-12-03T03:51:25.005Z,101123.22
2022-12-03T03:52:05.005Z,101131.16
2022-12-03T03:52:46.056Z,101127.63
2022-12-03T03:53:27.010Z,101106.84
2022-12-03T03:54:07.973Z,101129.38
2022-12-03T03:54:48.003Z,101130.38
2022-12-03T03:55:29.006Z,101131.09
2022-12-03T03:56:09.623Z,101115.34
2022-12-03T03:56:49.978Z,101131.00
2022-12-03T03:57:30.116Z,101131.00
2022-12-03T03:58:09.982Z,101133.59
2022-12-03T03:58:51.023Z,101128.41
2022-12-03T03:59:31.067Z,101134.69
2022-12-03T04:00:15.362Z,101140.66
2022-12-03T04:00:56.039Z,101125.75
2022-12-03T04:01:37.088Z,101137.94
2022-12-03T04:02:31.004Z,101135.88
2022-12-03T04:03:20.016Z,101135.56
2022-12-03T04:03:53.909Z,101134.59
2022-12-03T04:04:42.969Z,101128.69
2022-12-03T04:05:22.604Z,101123.31
2022-12-03T04:06:09.960Z,101133.81
2022-12-03T04:06:43.691Z,101122.88
2022-12-03T04:07:31.039Z,101127.84
2022-12-03T04:08:04.969Z,101133.81
2022-12-03T04:08:44.990Z,101130.22
2022-12-03T04:09:19.008Z,101119.59
2022-12-03T04:09:53.633Z,101133.53
2022-12-03T04:10:52.984Z,101135.25
2022-12-03T04:11:51.790Z,101125.78
2022-12-03T04:12:51.036Z,101126.34
2022-12-03T04:13:31.001Z,101128.28
2022-12-03T04:14:10.988Z,101127.28
2022-12-03T04:14:52.416Z,101119.59
2022-12-03T04:15:33.009Z,101118.50
2022-12-03T04:16:14.103Z,101124.69
2022-12-03T04:16:54.086Z,101130.16
2022-12-03T04:17:33.982Z,101131.81
2022-12-03T04:18:33.037Z,101123.25
2022-12-03T04:19:20.997Z,101127.47
2022-12-03T04:19:54.625Z,101125.78
2022-12-03T04:20:41.937Z,101123.38
2022-12-03T04:21:41.511Z,101131.31
2022-12-03T04:22:48.963Z,101126.44
2022-12-03T04:23:26.289Z,101112.53
2022-12-03T04:24:19.963Z,101131.88
2022-12-03T04:25:19.945Z,101120.66
2022-12-03T04:26:18.811Z,101100.44
2022-12-03T04:27:17.950Z,101111.50
2022-12-03T04:28:16.688Z,101126.75
2022-12-03T04:28:57.978Z,101116.31
2022-12-03T04:29:44.970Z,101129.84
2022-12-03T04:30:18.711Z,101124.66
2022-12-03T04:31:05.969Z,101122.66
2022-12-03T04:31:58.817Z,101129.66
2022-12-03T04:33:04.896Z,101119.69
2022-12-03T04:33:57.221Z,101125.91
2022-12-03T04:35:02.019Z,101124.16
2022-12-03T04:35:44.416Z,101109.34
2022-12-03T04:36:31.981Z,101117.94
2022-12-03T04:37:05.626Z,101118.94
2022-12-03T04:37:53.942Z,101117.94
2022-12-03T04:38:28.606Z,101120.34
2022-12-03T04:39:15.930Z,101107.28
2022-12-03T04:39:49.687Z,101113.19
2022-12-03T04:40:48.999Z,101111.22
2022-12-03T04:41:22.975Z,101117.63
2022-12-03T04:41:56.647Z,101100.22
2022-12-03T04:42:36.935Z,101109.06
2022-12-03T04:43:10.941Z,101115.13
2022-12-03T04:44:03.436Z,101117.75
2022-12-03T04:44:43.917Z,101108.06
2022-12-03T04:45:17.952Z,101106.19
2022-12-03T04:45:57.966Z,101108.84
2022-12-03T04:46:37.957Z,101117.06
2022-12-03T04:47:20.947Z,101113.44
2022-12-03T04:48:02.070Z,101116.34
2022-12-03T04:48:41.918Z,101115.25
2022-12-03T04:49:21.972Z,101116.41
2022-12-03T04:50:01.936Z,101112.06
2022-12-03T04:50:42.011Z,101111.94
2022-12-03T04:51:21.933Z,101104.03
2022-12-03T04:52:02.027Z,101101.56
2022-12-03T04:52:42.894Z,101108.28
2022-12-03T04:53:22.923Z,101108.44
2022-12-03T04:54:02.904Z,101098.78
2022-12-03T04:54:44.036Z,101113.75
2022-12-03T04:55:23.973Z,101119.91
2022-12-03T04:56:03.936Z,101107.72
2022-12-03T04:56:43.999Z,101118.06
2022-12-03T04:57:24.948Z,101117.19
2022-12-03T04:58:04.951Z,101104.97
2022-12-03T04:58:44.979Z,101122.66
2022-12-03T04:59:24.924Z,101110.28
2022-12-03T05:00:04.976Z,101118.16
2022-12-03T05:00:44.907Z,101119.78
2022-12-03T05:01:25.015Z,101109.25
2022-12-03T05:02:06.128Z,101117.19
2022-12-03T05:02:45.998Z,101119.72
2022-12-03T05:03:25.919Z,101096.97
2022-12-03T05:04:05.924Z,101109.16
2022-12-03T05:04:45.891Z,101121.44
2022-12-03T05:05:25.966Z,101117.41
2022-12-03T05:06:05.898Z,101111.94
2022-12-03T05:06:48.061Z,101108.38
2022-12-03T05:07:27.977Z,101113.69
2022-12-03T05:08:08.301Z,101114.47
2022-12-03T05:08:48.948Z,101118.94
2022-12-03T05:09:31.056Z,101123.25
2022-12-03T05:10:13.905Z,101113.53
2022-12-03T05:10:55.036Z,101117.84
2022-12-03T05:11:38.326Z,101113.44
2022-12-03T05:12:18.988Z,101112.38
2022-12-03T05:12:58.951Z,101120.22
2022-12-03T05:13:39.917Z,101113.19
2022-12-03T05:14:20.947Z,101115.78
2022-12-03T05:15:00.984Z,101097.72
2022-12-03T05:15:41.946Z,101105.69
2022-12-03T05:16:22.976Z,101116.91
2022-12-03T05:17:03.019Z,101114.88
2022-12-03T05:17:42.968Z,101107.13
2022-12-03T05:18:22.922Z,101113.38
2022-12-03T05:19:02.931Z,101107.28
2022-12-03T05:20:01.875Z,101111.00
2022-12-03T05:20:41.988Z,101110.66
2022-12-03T05:21:22.932Z,101101.88
2022-12-03T05:22:02.990Z,101103.81
2022-12-03T05:22:43.154Z,101108.13
2022-12-03T05:23:29.940Z,101100.88
2022-12-03T05:24:03.923Z,101105.25
2022-12-03T05:24:51.187Z,101098.56
2022-12-03T05:25:25.627Z,101103.72
2022-12-03T05:26:14.901Z,101087.84
2022-12-03T05:26:48.634Z,101102.16
2022-12-03T05:27:35.899Z,101100.66
2022-12-03T05:28:09.584Z,101105.97
2022-12-03T05:28:49.926Z,101103.94
2022-12-03T05:29:23.946Z,101109.00
2022-12-03T05:29:57.558Z,101096.25
2022-12-03T05:30:38.947Z,101102.09
2022-12-03T05:31:13.114Z,101100.22
2022-12-03T05:31:47.586Z,101099.28
2022-12-03T05:32:27.837Z,101102.09
2022-12-03T05:33:01.947Z,101098.75
2022-12-03T05:33:39.483Z,101075.78
2022-12-03T05:34:23.951Z,101077.41
2022-12-03T05:35:00.364Z,101101.97
2022-12-03T05:35:34.541Z,101092.16
2022-12-03T05:36:15.939Z,101105.47
2022-12-03T05:36:49.951Z,101100.13
2022-12-03T05:37:23.521Z,101096.84
2022-12-03T05:38:03.860Z,101100.44
2022-12-03T05:38:37.973Z,101096.84
2022-12-03T05:39:12.709Z,101090.72
2022-12-03T05:39:52.942Z,101101.81
2022-12-03T05:40:26.915Z,101100.94
2022-12-03T05:41:00.696Z,101104.53
2022-12-03T05:41:59.827Z,101099.94
2022-12-03T05:42:52.482Z,101099.38
2022-12-03T05:43:26.631Z,101094.41
2022-12-03T05:44:07.832Z,101109.50
2022-12-03T05:44:41.861Z,101090.34
2022-12-03T05:45:21.898Z,101092.00
2022-12-03T05:46:02.060Z,101090.13
2022-12-03T05:46:41.970Z,101088.16
2022-12-03T05:47:21.939Z,101083.72
2022-12-03T05:48:03.830Z,101089.00
2022-12-03T05:48:44.968Z,101088.78
2022-12-03T05:49:24.932Z,101087.41
2022-12-03T05:50:05.008Z,101090.66
2022-12-03T05:50:46.917Z,101100.22
2022-12-03T05:51:26.942Z,101095.78
2022-12-03T05:52:06.891Z,101093.09
2022-12-03T05:52:46.912Z,101096.56
2022-12-03T05:53:27.846Z,101094.69
2022-12-03T05:54:07.944Z,101077.31
2022-12-03T05:54:47.835Z,101095.41
2022-12-03T05:55:27.890Z,101096.25
2022-12-03T05:56:07.878Z,101091.94
2022-12-03T05:56:47.871Z,101097.25
2022-12-03T05:57:27.819Z,101094.69
2022-12-03T05:58:08.885Z,101100.00
2022-12-03T05:58:48.831Z,101101.06
2022-12-03T05:59:28.915Z,101098.28
2022-12-03T06:00:08.868Z,101102.53
2022-12-03T06:00:48.868Z,101099.94
2022-12-03T06:01:28.971Z,101084.53
2022-12-03T06:02:08.939Z,101100.44
2022-12-03T06:02:49.968Z,101089.69
2022-12-03T06:03:30.009Z,101091.53
2022-12-03T06:04:09.919Z,101096.56
2022-12-03T06:04:49.895Z,101088.50
2022-12-03T06:05:29.827Z,101096.56
2022-12-03T06:06:09.894Z,101084.59
2022-12-03T06:06:49.844Z,101096.63
2022-12-03T06:07:30.957Z,101097.84
2022-12-03T06:08:10.889Z,101092.31
2022-12-03T06:08:50.871Z,101086.69
2022-12-03T06:09:30.896Z,101082.66
2022-12-03T06:10:14.159Z,101091.28
2022-12-03T06:10:54.814Z,101099.81
2022-12-03T06:11:36.979Z,101098.66
2022-12-03T06:12:17.848Z,101091.44
2022-12-03T06:12:58.927Z,101101.97
2022-12-03T06:13:38.844Z,101094.41
2022-12-03T06:14:18.864Z,101098.75
2022-12-03T06:14:58.840Z,101077.63
2022-12-03T06:15:43.573Z,101091.66
2022-12-03T06:16:23.869Z,101082.81
2022-12-03T06:17:05.088Z,101087.13
2022-12-03T06:17:45.819Z,101088.72
2022-12-03T06:18:25.889Z,101093.09
2022-12-03T06:19:05.832Z,101078.69
2022-12-03T06:19:45.879Z,101093.53
2022-12-03T06:20:26.904Z,101095.13
2022-12-03T06:21:06.875Z,101088.06
2022-12-03T06:21:47.853Z,101104.75
2022-12-03T06:22:27.855Z,101098.72
2022-12-03T06:23:07.855Z,101107.28
2022-12-03T06:23:47.824Z,101108.84
2022-12-03T06:24:27.763Z,101107.13
2022-12-03T06:25:07.867Z,101109.72
2022-12-03T06:25:47.824Z,101105.25
2022-12-03T06:26:30.113Z,101113.97
2022-12-03T06:27:09.853Z,101095.78
2022-12-03T06:27:49.883Z,101105.56
2022-12-03T06:28:29.860Z,101110.78
2022-12-03T06:29:10.022Z,101109.09
2022-12-03T06:29:49.819Z,101102.09
2022-12-03T06:30:29.917Z,101111.59
2022-12-03T06:31:10.839Z,101108.94
2022-12-03T06:31:50.862Z,101102.88
2022-12-03T06:32:30.790Z,101104.91
2022-12-03T06:33:10.884Z,101101.47
2022-12-03T06:33:50.902Z,101111.00
2022-12-03T06:34:30.840Z,101115.19
2022-12-03T06:35:10.778Z,101107.28
2022-12-03T06:35:51.881Z,101115.13
2022-12-03T06:36:33.791Z,101112.09
2022-12-03T06:37:14.091Z,101108.47
2022-12-03T06:37:53.832Z,101114.69
2022-12-03T06:38:33.879Z,101102.34
2022-12-03T06:39:13.841Z,101112.81
2022-12-03T06:39:53.870Z,101108.38
2022-12-03T06:40:34.881Z,101107.50
2022-12-03T06:41:14.804Z,101105.69
2022-12-03T06:41:54.829Z,101104.25
2022-12-03T06:42:34.818Z,101115.41
2022-12-03T06:43:15.778Z,101117.03
2022-12-03T06:43:55.866Z,101105.75
2022-12-03T06:44:35.815Z,101110.88
2022-12-03T06:45:16.845Z,101113.50
2022-12-03T06:45:56.812Z,101117.75
2022-12-03T06:46:36.983Z,101115.19
2022-12-03T06:47:16.767Z,101115.91
2022-12-03T06:47:56.874Z,101096.56
2022-12-03T06:48:43.784Z,101103.50
2022-12-03T06:49:17.831Z,101120.00
2022-12-03T06:49:58.822Z,101119.94
2022-12-03T06:50:38.847Z,101115.38
2022-12-03T06:51:18.802Z,101113.53
2022-12-03T06:51:58.887Z,101113.53
2022-12-03T06:52:39.777Z,101111.00
2022-12-03T06:53:19.915Z,101103.81
2022-12-03T06:53:59.789Z,101111.66
2022-12-03T06:54:40.818Z,101109.94
2022-12-03T06:55:20.823Z,101108.06
2022-12-03T06:56:01.169Z,101111.78
2022-12-03T06:56:45.121Z,101111.81
2022-12-03T06:57:25.846Z,101118.94
2022-12-03T06:58:05.811Z,101097.41
2022-12-03T06:58:45.828Z,101109.28
2022-12-03T06:59:26.759Z,101113.53
2022-12-03T07:00:08.779Z,101113.59
2022-12-03T07:00:48.788Z,101114.59
2022-12-03T07:01:29.526Z,101114.81
2022-12-03T07:03:12.842Z,101104.25
2022-12-03T07:03:46.837Z,101095.13
2022-12-03T07:04:33.789Z,101101.66
2022-12-03T07:05:07.827Z,101114.66
2022-12-03T07:05:54.891Z,101116.50
2022-12-03T07:06:28.827Z,101115.78
2022-12-03T07:07:15.746Z,101115.91
2022-12-03T07:07:52.264Z,101114.16
2022-12-03T07:08:39.768Z,101120.44
2022-12-03T07:09:16.358Z,101113.22
2022-12-03T07:10:03.736Z,101113.88
2022-12-03T07:10:37.841Z,101115.56
2022-12-03T07:11:36.837Z,101113.72
2022-12-03T07:12:16.917Z,101111.22
2022-12-03T07:12:57.839Z,101116.34
2022-12-03T07:13:37.882Z,101103.94
2022-12-03T07:14:17.804Z,101117.75
2022-12-03T07:15:11.762Z,101109.78
2022-12-03T07:16:05.807Z,101111.00
2022-12-03T07:16:52.789Z,101118.91
2022-12-03T07:17:26.790Z,101102.31
2022-12-03T07:18:13.791Z,101115.47
2022-12-03T07:18:47.777Z,101120.72
2022-12-03T07:19:34.768Z,101109.13
2022-12-03T07:20:09.109Z,101101.34
2022-12-03T07:20:55.744Z,101118.13
2022-12-03T07:21:30.010Z,101067.34
2022-12-03T07:22:16.779Z,101104.66
2022-12-03T07:22:50.894Z,101108.25
2022-12-03T07:23:37.736Z,101103.88
2022-12-03T07:24:12.779Z,101097.84
2022-12-03T07:24:59.725Z,101096.75
2022-12-03T07:25:33.830Z,101099.66
2022-12-03T07:26:20.905Z,101088.25
2022-12-03T07:26:54.810Z,101105.09
2022-12-03T07:27:41.745Z,101090.84
2022-12-03T07:28:15.753Z,101097.41
2022-12-03T07:29:02.744Z,101092.16
2022-12-03T07:29:36.867Z,101089.06
2022-12-03T07:30:24.771Z,101094.00
2022-12-03T07:30:58.903Z,101094.97
2022-12-03T07:31:45.860Z,101094.88
2022-12-03T07:32:19.825Z,101086.25
2022-12-03T07:33:06.754Z,101094.75
2022-12-03T07:33:40.935Z,101078.97
2022-12-03T07:34:27.758Z,101091.88
2022-12-03T07:35:02.826Z,101088.47
2022-12-03T07:35:49.777Z,101092.75
2022-12-03T07:36:23.912Z,101102.75
2022-12-03T07:37:11.771Z,101093.84
2022-12-03T07:37:48.451Z,101086.81
2022-12-03T07:38:28.811Z,101091.19
2022-12-03T07:39:08.936Z,101098.94
2022-12-03T07:39:48.775Z,101093.09
2022-12-03T07:40:29.875Z,101090.56
2022-12-03T07:41:10.731Z,101090.34
2022-12-03T07:41:50.893Z,101088.75
2022-12-03T07:42:30.711Z,101097.41
2022-12-03T07:43:11.778Z,101100.69
2022-12-03T07:43:51.774Z,101096.75
2022-12-03T07:44:32.014Z,101104.59
2022-12-03T07:45:13.799Z,101094.06
2022-12-03T07:45:53.830Z,101070.47
2022-12-03T07:46:33.833Z,101093.94
2022-12-03T07:47:13.843Z,101106.94
2022-12-03T07:47:53.728Z,101096.75
2022-12-03T07:48:33.808Z,101104.59
2022-12-03T07:49:14.770Z,101099.84
2022-12-03T07:49:55.815Z,101105.38
2022-12-03T07:50:36.773Z,101101.00
2022-12-03T07:51:17.816Z,101092.22
2022-12-03T07:52:00.728Z,101103.44
2022-12-03T07:52:40.767Z,101102.72
2022-12-03T07:53:20.718Z,101104.50
2022-12-03T07:54:00.918Z,101096.31
2022-12-03T07:54:41.756Z,101101.00
2022-12-03T07:55:21.803Z,101098.63
2022-12-03T07:56:02.818Z,101112.44
2022-12-03T07:56:42.941Z,101103.50